sensor_id;sensor_type;location;lat;lon;timestamp;P1;durP1;ratioP1;P2;durP2;ratioP2
12774;SDS011;6451;42.630;23.382;2023-05-29T00:00:59;9.30;;;5.10;;
12774;SDS011;6451;42.630;23.382;2023-05-29T00:03:27;8.00;;;5.00;;
12774;SDS011;6451;42.630;23.382;2023-05-29T00:05:58;5.40;;;4.90;;
12774;SDS011;6451;42.630;23.382;2023-05-29T00:08:26;7.60;;;5.00;;
12774;SDS011;6451;42.630;23.382;2023-05-29T00:10:53;5.80;;;5.17;;
12774;SDS011;6451;42.630;23.382;2023-05-29T00:13:21;9.07;;;4.80;;
12774;SDS011;6451;42.630;23.382;2023-05-29T00:15:48;7.63;;;4.93;;
12774;SDS011;6451;42.630;23.382;2023-05-29T00:18:15;7.33;;;4.90;;
12774;SDS011;6451;42.630;23.382;2023-05-29T00:20:42;7.73;;;5.03;;
12774;SDS011;6451;42.630;23.382;2023-05-29T00:23:10;6.07;;;5.00;;
12774;SDS011;6451;42.630;23.382;2023-05-29T00:25:37;7.37;;;4.97;;
12774;SDS011;6451;42.630;23.382;2023-05-29T00:28:06;8.70;;;4.63;;
12774;SDS011;6451;42.630;23.382;2023-05-29T00:30:35;7.73;;;4.90;;
12774;SDS011;6451;42.630;23.382;2023-05-29T00:33:02;7.73;;;5.00;;
12774;SDS011;6451;42.630;23.382;2023-05-29T00:35:29;7.90;;;4.80;;
12774;SDS011;6451;42.630;23.382;2023-05-29T00:37:56;5.80;;;4.80;;
12774;SDS011;6451;42.630;23.382;2023-05-29T00:40:24;6.60;;;4.90;;
12774;SDS011;6451;42.630;23.382;2023-05-29T00:42:51;7.57;;;5.03;;
12774;SDS011;6451;42.630;23.382;2023-05-29T00:45:18;6.27;;;4.97;;
12774;SDS011;6451;42.630;23.382;2023-05-29T00:47:47;6.87;;;5.00;;
12774;SDS011;6451;42.630;23.382;2023-05-29T00:50:14;7.83;;;5.03;;
12774;SDS011;6451;42.630;23.382;2023-05-29T00:52:41;9.07;;;5.50;;
12774;SDS011;6451;42.630;23.382;2023-05-29T00:55:10;7.17;;;5.30;;
12774;SDS011;6451;42.630;23.382;2023-05-29T00:57:39;8.10;;;5.47;;
12774;SDS011;6451;42.630;23.382;2023-05-29T01:00:06;8.60;;;5.20;;
12774;SDS011;6451;42.630;23.382;2023-05-29T01:02:38;7.50;;;5.53;;
12774;SDS011;6451;42.630;23.382;2023-05-29T01:05:10;5.90;;;5.10;;
12774;SDS011;6451;42.630;23.382;2023-05-29T01:07:37;7.63;;;5.30;;
12774;SDS011;6451;42.630;23.382;2023-05-29T01:10:04;6.20;;;5.03;;
12774;SDS011;6451;42.630;23.382;2023-05-29T01:12:38;5.90;;;5.23;;
12774;SDS011;6451;42.630;23.382;2023-05-29T01:15:21;8.77;;;5.40;;
12774;SDS011;6451;42.630;23.382;2023-05-29T01:18:02;10.10;;;5.27;;
12774;SDS011;6451;42.630;23.382;2023-05-29T01:20:40;5.80;;;5.30;;
12774;SDS011;6451;42.630;23.382;2023-05-29T01:23:23;7.43;;;5.10;;
12774;SDS011;6451;42.630;23.382;2023-05-29T01:26:09;7.23;;;5.23;;
12774;SDS011;6451;42.630;23.382;2023-05-29T01:28:47;6.27;;;5.43;;
12774;SDS011;6451;42.630;23.382;2023-05-29T01:31:16;16.60;;;5.50;;
12774;SDS011;6451;42.630;23.382;2023-05-29T01:33:51;7.77;;;5.90;;
12774;SDS011;6451;42.630;23.382;2023-05-29T01:36:18;6.63;;;5.50;;
12774;SDS011;6451;42.630;23.382;2023-05-29T01:38:45;6.53;;;5.53;;
12774;SDS011;6451;42.630;23.382;2023-05-29T01:41:12;6.73;;;5.77;;
12774;SDS011;6451;42.630;23.382;2023-05-29T01:43:41;6.50;;;5.40;;
12774;SDS011;6451;42.630;23.382;2023-05-29T01:46:10;9.50;;;5.80;;
12774;SDS011;6451;42.630;23.382;2023-05-29T01:48:38;5.83;;;5.23;;
12774;SDS011;6451;42.630;23.382;2023-05-29T01:51:06;9.33;;;6.47;;
12774;SDS011;6451;42.630;23.382;2023-05-29T01:53:34;7.43;;;5.63;;
12774;SDS011;6451;42.630;23.382;2023-05-29T01:56:01;8.47;;;6.23;;
12774;SDS011;6451;42.630;23.382;2023-05-29T01:58:29;6.67;;;5.93;;
12774;SDS011;6451;42.630;23.382;2023-05-29T02:00:57;8.60;;;5.80;;
12774;SDS011;6451;42.630;23.382;2023-05-29T02:03:25;11.40;;;6.40;;
12774;SDS011;6451;42.630;23.382;2023-05-29T02:05:54;7.07;;;6.00;;
12774;SDS011;6451;42.630;23.382;2023-05-29T02:08:21;6.90;;;6.20;;
12774;SDS011;6451;42.630;23.382;2023-05-29T02:10:48;8.00;;;6.47;;
12774;SDS011;6451;42.630;23.382;2023-05-29T02:13:16;9.13;;;6.17;;
12774;SDS011;6451;42.630;23.382;2023-05-29T02:15:43;7.53;;;5.97;;
12774;SDS011;6451;42.630;23.382;2023-05-29T02:18:12;6.90;;;6.20;;
12774;SDS011;6451;42.630;23.382;2023-05-29T02:20:42;8.07;;;6.60;;
12774;SDS011;6451;42.630;23.382;2023-05-29T02:23:10;9.90;;;6.93;;
12774;SDS011;6451;42.630;23.382;2023-05-29T02:25:37;8.50;;;7.23;;
12774;SDS011;6451;42.630;23.382;2023-05-29T02:28:03;8.90;;;6.83;;
12774;SDS011;6451;42.630;23.382;2023-05-29T02:30:30;10.10;;;6.90;;
12774;SDS011;6451;42.630;23.382;2023-05-29T02:32:57;8.97;;;7.00;;
12774;SDS011;6451;42.630;23.382;2023-05-29T02:35:24;8.77;;;7.17;;
12774;SDS011;6451;42.630;23.382;2023-05-29T02:37:53;7.53;;;6.73;;
12774;SDS011;6451;42.630;23.382;2023-05-29T02:40:20;8.90;;;7.13;;
12774;SDS011;6451;42.630;23.382;2023-05-29T02:42:47;9.10;;;7.10;;
12774;SDS011;6451;42.630;23.382;2023-05-29T02:45:14;7.93;;;7.10;;
12774;SDS011;6451;42.630;23.382;2023-05-29T02:47:41;8.57;;;7.00;;
12774;SDS011;6451;42.630;23.382;2023-05-29T02:50:08;10.97;;;7.20;;
12774;SDS011;6451;42.630;23.382;2023-05-29T02:52:36;8.87;;;7.13;;
12774;SDS011;6451;42.630;23.382;2023-05-29T02:55:04;15.27;;;7.37;;
12774;SDS011;6451;42.630;23.382;2023-05-29T02:57:32;8.57;;;7.10;;
12774;SDS011;6451;42.630;23.382;2023-05-29T02:59:59;9.53;;;7.00;;
12774;SDS011;6451;42.630;23.382;2023-05-29T03:02:26;10.30;;;6.90;;
12774;SDS011;6451;42.630;23.382;2023-05-29T03:04:53;9.43;;;6.53;;
12774;SDS011;6451;42.630;23.382;2023-05-29T03:07:20;8.07;;;6.67;;
12774;SDS011;6451;42.630;23.382;2023-05-29T03:09:47;7.13;;;6.43;;
12774;SDS011;6451;42.630;23.382;2023-05-29T03:12:15;8.50;;;7.10;;
12774;SDS011;6451;42.630;23.382;2023-05-29T03:14:44;8.97;;;6.40;;
12774;SDS011;6451;42.630;23.382;2023-05-29T03:17:11;8.70;;;7.03;;
12774;SDS011;6451;42.630;23.382;2023-05-29T03:19:37;8.93;;;6.53;;
12774;SDS011;6451;42.630;23.382;2023-05-29T03:22:04;7.90;;;7.13;;
12774;SDS011;6451;42.630;23.382;2023-05-29T03:24:31;8.17;;;7.03;;
12774;SDS011;6451;42.630;23.382;2023-05-29T03:27:01;7.43;;;6.27;;
12774;SDS011;6451;42.630;23.382;2023-05-29T03:29:31;7.73;;;6.93;;
12774;SDS011;6451;42.630;23.382;2023-05-29T03:31:58;7.80;;;7.00;;
12774;SDS011;6451;42.630;23.382;2023-05-29T03:34:25;8.37;;;6.57;;
12774;SDS011;6451;42.630;23.382;2023-05-29T03:36:53;7.83;;;6.73;;
12774;SDS011;6451;42.630;23.382;2023-05-29T03:39:20;9.53;;;6.00;;
12774;SDS011;6451;42.630;23.382;2023-05-29T03:41:47;6.85;;;6.20;;
12774;SDS011;6451;42.630;23.382;2023-05-29T03:44:13;8.83;;;7.03;;
12774;SDS011;6451;42.630;23.382;2023-05-29T03:46:42;8.13;;;6.22;;
12774;SDS011;6451;42.630;23.382;2023-05-29T03:49:09;8.45;;;5.43;;
12774;SDS011;6451;42.630;23.382;2023-05-29T03:51:36;7.07;;;5.53;;
12774;SDS011;6451;42.630;23.382;2023-05-29T03:54:03;7.00;;;6.30;;
12774;SDS011;6451;42.630;23.382;2023-05-29T03:56:30;7.07;;;6.30;;
12774;SDS011;6451;42.630;23.382;2023-05-29T03:58:57;8.63;;;5.78;;
12774;SDS011;6451;42.630;23.382;2023-05-29T04:01:24;10.90;;;6.28;;
12774;SDS011;6451;42.630;23.382;2023-05-29T04:03:52;12.05;;;6.28;;
12774;SDS011;6451;42.630;23.382;2023-05-29T04:06:20;12.05;;;6.50;;
12774;SDS011;6451;42.630;23.382;2023-05-29T04:08:46;12.55;;;6.45;;
12774;SDS011;6451;42.630;23.382;2023-05-29T04:11:13;10.55;;;6.47;;
12774;SDS011;6451;42.630;23.382;2023-05-29T04:13:41;8.30;;;6.40;;
12774;SDS011;6451;42.630;23.382;2023-05-29T04:16:08;8.25;;;5.93;;
12774;SDS011;6451;42.630;23.382;2023-05-29T04:18:35;7.60;;;6.03;;
12774;SDS011;6451;42.630;23.382;2023-05-29T04:21:04;8.65;;;6.20;;
12774;SDS011;6451;42.630;23.382;2023-05-29T04:23:31;8.50;;;5.57;;
12774;SDS011;6451;42.630;23.382;2023-05-29T04:25:58;7.38;;;5.10;;
12774;SDS011;6451;42.630;23.382;2023-05-29T04:28:27;5.75;;;5.13;;
12774;SDS011;6451;42.630;23.382;2023-05-29T04:30:54;8.90;;;5.32;;
12774;SDS011;6451;42.630;23.382;2023-05-29T04:33:21;9.50;;;5.32;;
12774;SDS011;6451;42.630;23.382;2023-05-29T04:35:49;8.93;;;5.63;;
12774;SDS011;6451;42.630;23.382;2023-05-29T04:38:18;7.43;;;5.50;;
12774;SDS011;6451;42.630;23.382;2023-05-29T04:40:50;5.40;;;4.65;;
12774;SDS011;6451;42.630;23.382;2023-05-29T04:43:17;5.72;;;5.10;;
12774;SDS011;6451;42.630;23.382;2023-05-29T04:45:44;5.72;;;5.03;;
12774;SDS011;6451;42.630;23.382;2023-05-29T04:48:11;6.95;;;4.70;;
12774;SDS011;6451;42.630;23.382;2023-05-29T04:50:38;8.98;;;4.47;;
12774;SDS011;6451;42.630;23.382;2023-05-29T04:53:05;10.35;;;5.05;;
12774;SDS011;6451;42.630;23.382;2023-05-29T04:55:33;8.88;;;4.85;;
12774;SDS011;6451;42.630;23.382;2023-05-29T04:58:00;11.20;;;5.97;;
12774;SDS011;6451;42.630;23.382;2023-05-29T05:00:27;9.98;;;5.43;;
12774;SDS011;6451;42.630;23.382;2023-05-29T05:02:54;8.50;;;5.20;;
12774;SDS011;6451;42.630;23.382;2023-05-29T05:05:21;6.88;;;4.70;;
12774;SDS011;6451;42.630;23.382;2023-05-29T05:07:48;9.30;;;4.40;;
12774;SDS011;6451;42.630;23.382;2023-05-29T05:10:15;9.75;;;5.38;;
12774;SDS011;6451;42.630;23.382;2023-05-29T05:12:43;8.90;;;4.60;;
12774;SDS011;6451;42.630;23.382;2023-05-29T05:15:12;6.68;;;4.35;;
12774;SDS011;6451;42.630;23.382;2023-05-29T05:17:39;7.78;;;4.30;;
12774;SDS011;6451;42.630;23.382;2023-05-29T05:20:09;5.05;;;4.07;;
12774;SDS011;6451;42.630;23.382;2023-05-29T05:22:37;5.15;;;4.65;;
12774;SDS011;6451;42.630;23.382;2023-05-29T05:25:05;6.93;;;4.63;;
12774;SDS011;6451;42.630;23.382;2023-05-29T05:27:33;8.40;;;4.30;;
12774;SDS011;6451;42.630;23.382;2023-05-29T05:30:01;7.90;;;4.47;;
12774;SDS011;6451;42.630;23.382;2023-05-29T05:32:28;6.40;;;4.60;;
12774;SDS011;6451;42.630;23.382;2023-05-29T05:34:56;6.05;;;4.38;;
12774;SDS011;6451;42.630;23.382;2023-05-29T05:37:23;5.72;;;4.20;;
12774;SDS011;6451;42.630;23.382;2023-05-29T05:39:51;5.97;;;4.30;;
12774;SDS011;6451;42.630;23.382;2023-05-29T05:42:19;6.38;;;4.13;;
12774;SDS011;6451;42.630;23.382;2023-05-29T05:44:45;5.97;;;4.30;;
12774;SDS011;6451;42.630;23.382;2023-05-29T05:47:14;7.38;;;4.30;;
12774;SDS011;6451;42.630;23.382;2023-05-29T05:49:41;4.72;;;4.25;;
12774;SDS011;6451;42.630;23.382;2023-05-29T05:52:08;9.55;;;4.15;;
12774;SDS011;6451;42.630;23.382;2023-05-29T05:54:35;4.40;;;4.00;;
12774;SDS011;6451;42.630;23.382;2023-05-29T05:57:02;4.18;;;3.78;;
12774;SDS011;6451;42.630;23.382;2023-05-29T05:59:29;4.30;;;3.88;;
12774;SDS011;6451;42.630;23.382;2023-05-29T06:01:56;4.85;;;4.30;;
12774;SDS011;6451;42.630;23.382;2023-05-29T06:04:24;11.07;;;6.43;;
12774;SDS011;6451;42.630;23.382;2023-05-29T06:06:51;8.38;;;6.47;;
12774;SDS011;6451;42.630;23.382;2023-05-29T06:09:18;9.85;;;6.63;;
12774;SDS011;6451;42.630;23.382;2023-05-29T06:11:45;9.18;;;6.10;;
12774;SDS011;6451;42.630;23.382;2023-05-29T06:14:12;10.70;;;6.32;;
12774;SDS011;6451;42.630;23.382;2023-05-29T06:16:39;9.13;;;6.20;;
12774;SDS011;6451;42.630;23.382;2023-05-29T06:19:07;10.45;;;5.68;;
12774;SDS011;6451;42.630;23.382;2023-05-29T06:21:36;6.68;;;5.00;;
12774;SDS011;6451;42.630;23.382;2023-05-29T06:24:03;8.43;;;5.30;;
12774;SDS011;6451;42.630;23.382;2023-05-29T06:26:30;10.90;;;5.35;;
12774;SDS011;6451;42.630;23.382;2023-05-29T06:28:57;5.85;;;4.40;;
12774;SDS011;6451;42.630;23.382;2023-05-29T06:31:24;5.50;;;4.47;;
12774;SDS011;6451;42.630;23.382;2023-05-29T06:33:51;7.13;;;4.40;;
12774;SDS011;6451;42.630;23.382;2023-05-29T06:36:19;7.20;;;5.25;;
12774;SDS011;6451;42.630;23.382;2023-05-29T06:38:48;9.52;;;5.68;;
12774;SDS011;6451;42.630;23.382;2023-05-29T06:41:15;6.22;;;4.80;;
12774;SDS011;6451;42.630;23.382;2023-05-29T06:43:42;10.50;;;4.88;;
12774;SDS011;6451;42.630;23.382;2023-05-29T06:46:10;6.22;;;4.90;;
12774;SDS011;6451;42.630;23.382;2023-05-29T06:48:37;6.85;;;4.30;;
12774;SDS011;6451;42.630;23.382;2023-05-29T06:51:04;6.05;;;4.45;;
12774;SDS011;6451;42.630;23.382;2023-05-29T06:53:34;4.18;;;3.42;;
12774;SDS011;6451;42.630;23.382;2023-05-29T06:56:03;3.88;;;2.97;;
12774;SDS011;6451;42.630;23.382;2023-05-29T06:58:30;6.95;;;3.15;;
12774;SDS011;6451;42.630;23.382;2023-05-29T07:00:58;4.43;;;3.42;;
12774;SDS011;6451;42.630;23.382;2023-05-29T07:03:25;3.85;;;2.90;;
12774;SDS011;6451;42.630;23.382;2023-05-29T07:05:53;4.07;;;2.78;;
12774;SDS011;6451;42.630;23.382;2023-05-29T07:08:20;5.95;;;3.15;;
12774;SDS011;6451;42.630;23.382;2023-05-29T07:10:47;4.38;;;3.40;;
12774;SDS011;6451;42.630;23.382;2023-05-29T07:13:16;3.35;;;3.05;;
12774;SDS011;6451;42.630;23.382;2023-05-29T07:15:44;4.05;;;3.20;;
12774;SDS011;6451;42.630;23.382;2023-05-29T07:18:10;4.13;;;3.05;;
12774;SDS011;6451;42.630;23.382;2023-05-29T07:20:37;3.90;;;2.90;;
12774;SDS011;6451;42.630;23.382;2023-05-29T07:23:04;2.80;;;2.60;;
12774;SDS011;6451;42.630;23.382;2023-05-29T07:25:31;3.50;;;2.60;;
12774;SDS011;6451;42.630;23.382;2023-05-29T07:27:58;5.43;;;2.42;;
12774;SDS011;6451;42.630;23.382;2023-05-29T07:30:27;3.55;;;2.40;;
12774;SDS011;6451;42.630;23.382;2023-05-29T07:32:53;2.63;;;2.42;;
12774;SDS011;6451;42.630;23.382;2023-05-29T07:35:20;4.55;;;2.60;;
12774;SDS011;6451;42.630;23.382;2023-05-29T07:37:47;4.35;;;2.30;;
12774;SDS011;6451;42.630;23.382;2023-05-29T07:40:16;3.70;;;2.17;;
12774;SDS011;6451;42.630;23.382;2023-05-29T07:42:43;4.07;;;2.47;;
12774;SDS011;6451;42.630;23.382;2023-05-29T07:45:10;3.53;;;2.78;;
12774;SDS011;6451;42.630;23.382;2023-05-29T07:47:38;4.93;;;2.70;;
12774;SDS011;6451;42.630;23.382;2023-05-29T07:50:07;5.32;;;2.83;;
12774;SDS011;6451;42.630;23.382;2023-05-29T07:52:35;5.45;;;2.80;;
12774;SDS011;6451;42.630;23.382;2023-05-29T07:55:02;3.20;;;2.55;;
12774;SDS011;6451;42.630;23.382;2023-05-29T07:57:30;3.75;;;2.70;;
12774;SDS011;6451;42.630;23.382;2023-05-29T07:59:57;5.45;;;3.08;;
12774;SDS011;6451;42.630;23.382;2023-05-29T08:02:23;3.15;;;2.70;;
12774;SDS011;6451;42.630;23.382;2023-05-29T08:04:53;3.47;;;3.00;;
12774;SDS011;6451;42.630;23.382;2023-05-29T08:07:19;5.47;;;2.95;;
12774;SDS011;6451;42.630;23.382;2023-05-29T08:09:47;3.10;;;2.40;;
12774;SDS011;6451;42.630;23.382;2023-05-29T08:12:13;3.50;;;2.60;;
12774;SDS011;6451;42.630;23.382;2023-05-29T08:14:40;4.05;;;2.70;;
12774;SDS011;6451;42.630;23.382;2023-05-29T08:17:07;4.20;;;2.90;;
12774;SDS011;6451;42.630;23.382;2023-05-29T08:19:34;2.90;;;2.70;;
12774;SDS011;6451;42.630;23.382;2023-05-29T08:22:02;6.65;;;4.22;;
12774;SDS011;6451;42.630;23.382;2023-05-29T08:24:30;4.57;;;3.00;;
12774;SDS011;6451;42.630;23.382;2023-05-29T08:26:57;3.92;;;2.70;;
12774;SDS011;6451;42.630;23.382;2023-05-29T08:29:25;4.53;;;3.00;;
12774;SDS011;6451;42.630;23.382;2023-05-29T08:31:52;4.45;;;2.90;;
12774;SDS011;6451;42.630;23.382;2023-05-29T08:34:19;4.65;;;2.95;;
12774;SDS011;6451;42.630;23.382;2023-05-29T08:36:46;6.30;;;2.97;;
12774;SDS011;6451;42.630;23.382;2023-05-29T08:39:15;4.32;;;2.95;;
12774;SDS011;6451;42.630;23.382;2023-05-29T08:41:44;5.32;;;2.70;;
12774;SDS011;6451;42.630;23.382;2023-05-29T08:44:18;5.45;;;2.90;;
12774;SDS011;6451;42.630;23.382;2023-05-29T08:46:49;3.28;;;2.67;;
12774;SDS011;6451;42.630;23.382;2023-05-29T08:49:20;3.15;;;2.80;;
12774;SDS011;6451;42.630;23.382;2023-05-29T08:51:49;2.92;;;2.63;;
12774;SDS011;6451;42.630;23.382;2023-05-29T08:54:23;2.95;;;2.63;;
12774;SDS011;6451;42.630;23.382;2023-05-29T08:56:50;2.90;;;2.55;;
12774;SDS011;6451;42.630;23.382;2023-05-29T08:59:17;5.60;;;2.65;;
12774;SDS011;6451;42.630;23.382;2023-05-29T09:01:45;3.25;;;2.50;;
12774;SDS011;6451;42.630;23.382;2023-05-29T09:04:13;3.60;;;2.45;;
12774;SDS011;6451;42.630;23.382;2023-05-29T09:06:40;5.15;;;2.47;;
12774;SDS011;6451;42.630;23.382;2023-05-29T09:09:09;4.72;;;2.65;;
12774;SDS011;6451;42.630;23.382;2023-05-29T09:11:37;3.53;;;2.47;;
12774;SDS011;6451;42.630;23.382;2023-05-29T09:14:04;3.22;;;2.53;;
12774;SDS011;6451;42.630;23.382;2023-05-29T09:16:31;4.80;;;2.78;;
12774;SDS011;6451;42.630;23.382;2023-05-29T09:19:04;3.88;;;2.90;;
12774;SDS011;6451;42.630;23.382;2023-05-29T09:21:32;6.75;;;3.15;;
12774;SDS011;6451;42.630;23.382;2023-05-29T09:24:02;4.07;;;2.60;;
12774;SDS011;6451;42.630;23.382;2023-05-29T09:26:30;2.92;;;2.63;;
12774;SDS011;6451;42.630;23.382;2023-05-29T09:28:59;4.63;;;2.78;;
12774;SDS011;6451;42.630;23.382;2023-05-29T09:31:26;3.53;;;2.90;;
12774;SDS011;6451;42.630;23.382;2023-05-29T09:33:53;3.78;;;2.65;;
12774;SDS011;6451;42.630;23.382;2023-05-29T09:36:21;5.63;;;2.65;;
12774;SDS011;6451;42.630;23.382;2023-05-29T09:38:48;3.95;;;3.17;;
12774;SDS011;6451;42.630;23.382;2023-05-29T09:41:25;4.93;;;2.63;;
12774;SDS011;6451;42.630;23.382;2023-05-29T09:43:52;4.90;;;2.95;;
12774;SDS011;6451;42.630;23.382;2023-05-29T09:46:22;4.70;;;3.38;;
12774;SDS011;6451;42.630;23.382;2023-05-29T09:48:49;5.53;;;3.78;;
12774;SDS011;6451;42.630;23.382;2023-05-29T09:51:20;3.58;;;2.80;;
12774;SDS011;6451;42.630;23.382;2023-05-29T09:53:48;3.10;;;2.60;;
12774;SDS011;6451;42.630;23.382;2023-05-29T09:56:15;3.88;;;2.60;;
12774;SDS011;6451;42.630;23.382;2023-05-29T09:58:44;3.95;;;2.70;;
12774;SDS011;6451;42.630;23.382;2023-05-29T10:01:12;2.92;;;2.63;;
12774;SDS011;6451;42.630;23.382;2023-05-29T10:03:42;7.50;;;3.13;;
12774;SDS011;6451;42.630;23.382;2023-05-29T10:06:10;4.15;;;2.70;;
12774;SDS011;6451;42.630;23.382;2023-05-29T10:08:40;4.93;;;2.70;;
12774;SDS011;6451;42.630;23.382;2023-05-29T10:11:14;5.90;;;2.72;;
12774;SDS011;6451;42.630;23.382;2023-05-29T10:13:45;5.10;;;3.10;;
12774;SDS011;6451;42.630;23.382;2023-05-29T10:16:15;3.42;;;2.90;;
12774;SDS011;6451;42.630;23.382;2023-05-29T10:18:50;6.05;;;3.20;;
12774;SDS011;6451;42.630;23.382;2023-05-29T10:21:21;7.55;;;2.63;;
12774;SDS011;6451;42.630;23.382;2023-05-29T10:23:49;4.38;;;3.17;;
12774;SDS011;6451;42.630;23.382;2023-05-29T10:26:18;4.43;;;3.10;;
12774;SDS011;6451;42.630;23.382;2023-05-29T10:28:49;2.72;;;2.42;;
12774;SDS011;6451;42.630;23.382;2023-05-29T10:31:24;4.45;;;3.13;;
12774;SDS011;6451;42.630;23.382;2023-05-29T10:34:00;4.60;;;3.00;;
12774;SDS011;6451;42.630;23.382;2023-05-29T10:36:35;5.30;;;3.20;;
12774;SDS011;6451;42.630;23.382;2023-05-29T10:39:09;4.95;;;2.70;;
12774;SDS011;6451;42.630;23.382;2023-05-29T10:41:37;4.40;;;3.28;;
12774;SDS011;6451;42.630;23.382;2023-05-29T10:47:08;4.80;;;3.22;;
12774;SDS011;6451;42.630;23.382;2023-05-29T10:49:39;7.75;;;3.30;;
12774;SDS011;6451;42.630;23.382;2023-05-29T10:52:14;8.20;;;3.72;;
12774;SDS011;6451;42.630;23.382;2023-05-29T10:54:53;5.93;;;3.30;;
12774;SDS011;6451;42.630;23.382;2023-05-29T10:57:22;5.18;;;3.53;;
12774;SDS011;6451;42.630;23.382;2023-05-29T10:59:58;4.32;;;3.78;;
12774;SDS011;6451;42.630;23.382;2023-05-29T11:02:36;4.30;;;3.58;;
12774;SDS011;6451;42.630;23.382;2023-05-29T11:05:06;5.25;;;3.78;;
12774;SDS011;6451;42.630;23.382;2023-05-29T11:07:50;5.80;;;3.90;;
12774;SDS011;6451;42.630;23.382;2023-05-29T11:13:11;4.55;;;4.00;;
12774;SDS011;6451;42.630;23.382;2023-05-29T11:16:03;7.35;;;4.07;;
12774;SDS011;6451;42.630;23.382;2023-05-29T11:18:38;5.88;;;4.22;;
12774;SDS011;6451;42.630;23.382;2023-05-29T11:21:08;4.50;;;3.97;;
12774;SDS011;6451;42.630;23.382;2023-05-29T11:23:47;8.60;;;4.22;;
12774;SDS011;6451;42.630;23.382;2023-05-29T11:26:17;6.60;;;3.67;;
12774;SDS011;6451;42.630;23.382;2023-05-29T11:28:45;4.55;;;3.70;;
12774;SDS011;6451;42.630;23.382;2023-05-29T11:31:13;5.03;;;3.80;;
12774;SDS011;6451;42.630;23.382;2023-05-29T11:33:41;4.07;;;3.70;;
12774;SDS011;6451;42.630;23.382;2023-05-29T11:36:17;4.30;;;3.85;;
12774;SDS011;6451;42.630;23.382;2023-05-29T11:38:44;5.68;;;3.53;;
12774;SDS011;6451;42.630;23.382;2023-05-29T11:41:11;7.13;;;3.40;;
12774;SDS011;6451;42.630;23.382;2023-05-29T11:43:38;7.07;;;3.20;;
12774;SDS011;6451;42.630;23.382;2023-05-29T11:46:15;5.30;;;2.95;;
12774;SDS011;6451;42.630;23.382;2023-05-29T11:48:46;4.90;;;3.30;;
12774;SDS011;6451;42.630;23.382;2023-05-29T11:51:14;5.20;;;3.55;;
12774;SDS011;6451;42.630;23.382;2023-05-29T11:53:42;6.20;;;3.70;;
12774;SDS011;6451;42.630;23.382;2023-05-29T11:56:10;4.82;;;3.20;;
12774;SDS011;6451;42.630;23.382;2023-05-29T11:58:39;4.22;;;3.40;;
12774;SDS011;6451;42.630;23.382;2023-05-29T12:01:08;4.30;;;3.20;;
12774;SDS011;6451;42.630;23.382;2023-05-29T12:03:39;4.07;;;3.15;;
12774;SDS011;6451;42.630;23.382;2023-05-29T12:06:06;7.47;;;3.58;;
12774;SDS011;6451;42.630;23.382;2023-05-29T12:08:42;4.15;;;3.47;;
12774;SDS011;6451;42.630;23.382;2023-05-29T12:11:09;4.22;;;3.50;;
12774;SDS011;6451;42.630;23.382;2023-05-29T12:13:36;6.00;;;3.72;;
12774;SDS011;6451;42.630;23.382;2023-05-29T12:16:04;5.20;;;3.70;;
12774;SDS011;6451;42.630;23.382;2023-05-29T12:18:32;4.32;;;3.30;;
12774;SDS011;6451;42.630;23.382;2023-05-29T12:21:00;4.38;;;3.35;;
12774;SDS011;6451;42.630;23.382;2023-05-29T12:23:29;5.32;;;3.58;;
12774;SDS011;6451;42.630;23.382;2023-05-29T12:25:58;5.32;;;3.33;;
12774;SDS011;6451;42.630;23.382;2023-05-29T12:28:25;4.95;;;3.17;;
12774;SDS011;6451;42.630;23.382;2023-05-29T12:30:57;4.70;;;3.40;;
12774;SDS011;6451;42.630;23.382;2023-05-29T12:33:27;7.97;;;3.70;;
12774;SDS011;6451;42.630;23.382;2023-05-29T12:36:01;6.47;;;3.65;;
12774;SDS011;6451;42.630;23.382;2023-05-29T12:38:28;6.05;;;3.88;;
12774;SDS011;6451;42.630;23.382;2023-05-29T12:40:55;4.57;;;3.60;;
12774;SDS011;6451;42.630;23.382;2023-05-29T12:43:23;5.43;;;3.50;;
12774;SDS011;6451;42.630;23.382;2023-05-29T12:45:53;4.05;;;3.38;;
12774;SDS011;6451;42.630;23.382;2023-05-29T12:48:25;10.98;;;6.38;;
12774;SDS011;6451;42.630;23.382;2023-05-29T12:50:53;4.40;;;3.47;;
12774;SDS011;6451;42.630;23.382;2023-05-29T12:53:19;7.70;;;3.20;;
12774;SDS011;6451;42.630;23.382;2023-05-29T12:55:46;4.22;;;3.10;;
12774;SDS011;6451;42.630;23.382;2023-05-29T12:58:14;3.80;;;3.25;;
12774;SDS011;6451;42.630;23.382;2023-05-29T13:00:43;4.43;;;3.05;;
12774;SDS011;6451;42.630;23.382;2023-05-29T13:03:11;6.43;;;3.80;;
12774;SDS011;6451;42.630;23.382;2023-05-29T13:05:38;5.18;;;4.22;;
12774;SDS011;6451;42.630;23.382;2023-05-29T13:08:06;7.43;;;4.65;;
12774;SDS011;6451;42.630;23.382;2023-05-29T13:10:33;8.00;;;4.43;;
12774;SDS011;6451;42.630;23.382;2023-05-29T13:13:00;7.78;;;5.10;;
12774;SDS011;6451;42.630;23.382;2023-05-29T13:15:27;6.32;;;4.78;;
12774;SDS011;6451;42.630;23.382;2023-05-29T13:17:56;6.20;;;4.20;;
12774;SDS011;6451;42.630;23.382;2023-05-29T13:20:23;4.90;;;3.85;;
12774;SDS011;6451;42.630;23.382;2023-05-29T13:22:50;5.30;;;4.32;;
12774;SDS011;6451;42.630;23.382;2023-05-29T13:25:19;6.45;;;4.75;;
12774;SDS011;6451;42.630;23.382;2023-05-29T13:27:46;7.50;;;5.20;;
12774;SDS011;6451;42.630;23.382;2023-05-29T13:30:14;10.40;;;5.95;;
12774;SDS011;6451;42.630;23.382;2023-05-29T13:32:42;7.70;;;5.00;;
12774;SDS011;6451;42.630;23.382;2023-05-29T13:35:11;9.82;;;5.30;;
12774;SDS011;6451;42.630;23.382;2023-05-29T13:37:38;7.22;;;5.10;;
12774;SDS011;6451;42.630;23.382;2023-05-29T13:40:05;7.85;;;4.72;;
12774;SDS011;6451;42.630;23.382;2023-05-29T13:42:34;6.75;;;4.93;;
12774;SDS011;6451;42.630;23.382;2023-05-29T13:45:01;7.13;;;5.18;;
12774;SDS011;6451;42.630;23.382;2023-05-29T13:47:29;9.85;;;5.70;;
12774;SDS011;6451;42.630;23.382;2023-05-29T13:49:57;5.25;;;4.63;;
12774;SDS011;6451;42.630;23.382;2023-05-29T13:52:26;7.90;;;5.40;;
12774;SDS011;6451;42.630;23.382;2023-05-29T13:54:53;8.05;;;5.20;;
12774;SDS011;6451;42.630;23.382;2023-05-29T13:57:20;13.50;;;10.32;;
12774;SDS011;6451;42.630;23.382;2023-05-29T13:59:47;6.30;;;5.68;;
12774;SDS011;6451;42.630;23.382;2023-05-29T14:02:14;7.55;;;5.32;;
12774;SDS011;6451;42.630;23.382;2023-05-29T14:04:40;8.48;;;5.45;;
12774;SDS011;6451;42.630;23.382;2023-05-29T14:07:08;8.15;;;5.32;;
12774;SDS011;6451;42.630;23.382;2023-05-29T14:09:37;8.55;;;5.00;;
12774;SDS011;6451;42.630;23.382;2023-05-29T14:12:04;6.07;;;4.35;;
12774;SDS011;6451;42.630;23.382;2023-05-29T14:14:32;7.15;;;4.63;;
12774;SDS011;6451;42.630;23.382;2023-05-29T14:17:00;5.38;;;4.70;;
12774;SDS011;6451;42.630;23.382;2023-05-29T14:19:27;7.20;;;4.97;;
12774;SDS011;6451;42.630;23.382;2023-05-29T14:21:54;8.43;;;4.63;;
12774;SDS011;6451;42.630;23.382;2023-05-29T14:24:21;6.07;;;4.80;;
12774;SDS011;6451;42.630;23.382;2023-05-29T14:26:51;6.82;;;5.10;;
12774;SDS011;6451;42.630;23.382;2023-05-29T14:29:18;7.28;;;4.30;;
12774;SDS011;6451;42.630;23.382;2023-05-29T14:31:45;4.15;;;3.65;;
12774;SDS011;6451;42.630;23.382;2023-05-29T14:34:12;7.40;;;4.20;;
12774;SDS011;6451;42.630;23.382;2023-05-29T14:36:39;6.13;;;4.13;;
12774;SDS011;6451;42.630;23.382;2023-05-29T14:39:09;5.03;;;3.65;;
12774;SDS011;6451;42.630;23.382;2023-05-29T14:41:36;4.18;;;3.60;;
12774;SDS011;6451;42.630;23.382;2023-05-29T14:44:05;7.70;;;5.63;;
12774;SDS011;6451;42.630;23.382;2023-05-29T14:46:32;6.32;;;4.47;;
12774;SDS011;6451;42.630;23.382;2023-05-29T14:49:01;5.13;;;3.53;;
12774;SDS011;6451;42.630;23.382;2023-05-29T14:51:28;5.15;;;3.72;;
12774;SDS011;6451;42.630;23.382;2023-05-29T14:53:56;4.03;;;3.30;;
12774;SDS011;6451;42.630;23.382;2023-05-29T14:56:23;5.00;;;2.97;;
12774;SDS011;6451;42.630;23.382;2023-05-29T14:58:49;5.45;;;3.00;;
12774;SDS011;6451;42.630;23.382;2023-05-29T15:01:20;5.85;;;3.33;;